createdAt,value
2022-12-17T00:01:53.386Z,-11.80
2022-12-17T00:04:39.626Z,-11.80
2022-12-17T00:07:25.205Z,-11.60
2022-12-17T00:10:10.563Z,-11.80
2022-12-17T00:12:58.214Z,-11.80
2022-12-17T00:15:43.993Z,-11.80
2022-12-17T00:18:30.652Z,-11.80
2022-12-17T00:21:19.176Z,-11.80
2022-12-17T00:24:06.221Z,-11.80
2022-12-17T00:26:52.908Z,-11.90
2022-12-17T00:29:38.847Z,-11.80
2022-12-17T00:32:24.946Z,-11.90
2022-12-17T00:35:12.140Z,-11.90
2022-12-17T00:37:57.689Z,-11.80
2022-12-17T00:40:43.625Z,-11.90
2022-12-17T00:43:32.205Z,-11.90
2022-12-17T00:46:18.074Z,-12.00
2022-12-17T00:49:03.745Z,-12.00
2022-12-17T00:51:49.248Z,-12.10
2022-12-17T00:54:35.359Z,-12.00
2022-12-17T00:57:20.936Z,-12.10
2022-12-17T01:00:06.883Z,-12.10
2022-12-17T01:02:53.569Z,-12.20
2022-12-17T01:05:39.612Z,-12.20
2022-12-17T01:08:33.700Z,-12.20
2022-12-17T01:11:26.184Z,-12.20
2022-12-17T01:14:13.198Z,-12.20
2022-12-17T01:16:58.754Z,-12.20
2022-12-17T01:19:44.370Z,-12.20
2022-12-17T01:22:29.553Z,-12.20
2022-12-17T01:25:19.630Z,-12.30
2022-12-17T01:28:09.709Z,-12.30
2022-12-17T01:30:56.792Z,-12.30
2022-12-17T01:33:42.625Z,-12.30
2022-12-17T01:36:28.481Z,-12.30
2022-12-17T01:39:13.762Z,-12.30
2022-12-17T01:42:02.727Z,-12.30
2022-12-17T01:45:13.472Z,-12.30
2022-12-17T01:48:21.448Z,-12.30
2022-12-17T01:51:14.846Z,-12.40
2022-12-17T01:54:13.256Z,-12.40
2022-12-17T01:57:02.553Z,-12.50
2022-12-17T02:00:20.097Z,-12.50
2022-12-17T02:03:05.829Z,-12.50
2022-12-17T02:06:49.641Z,-12.50
2022-12-17T02:10:37.906Z,-12.60
2022-12-17T02:13:39.826Z,-12.60
2022-12-17T02:16:37.974Z,-12.70
2022-12-17T02:20:00.401Z,-12.60
2022-12-17T02:23:16.687Z,-12.60
2022-12-17T02:26:30.269Z,-12.70
2022-12-17T02:29:21.440Z,-12.70
2022-12-17T02:32:09.172Z,-12.70
2022-12-17T02:35:06.201Z,-12.70
2022-12-17T02:37:51.641Z,-12.70
2022-12-17T02:40:40.053Z,-12.70
2022-12-17T02:43:28.950Z,-12.70
2022-12-17T02:46:15.794Z,-12.70
2022-12-17T02:49:02.122Z,-12.80
2022-12-17T02:51:47.545Z,-12.80
2022-12-17T02:54:33.366Z,-12.80
2022-12-17T02:57:18.955Z,-12.80
2022-12-17T03:00:04.451Z,-12.60
2022-12-17T03:02:50.212Z,-12.90
2022-12-17T03:05:45.149Z,-13.00
2022-12-17T03:08:32.189Z,-12.80
2022-12-17T03:11:17.808Z,-13.00
2022-12-17T03:14:03.234Z,-13.00
2022-12-17T03:16:49.252Z,-13.10
2022-12-17T03:19:34.981Z,-13.10
2022-12-17T03:22:23.725Z,-13.10
2022-12-17T03:25:08.830Z,-13.10
2022-12-17T03:27:54.262Z,-13.10
2022-12-17T03:30:42.226Z,-13.20
2022-12-17T03:33:30.917Z,-13.20
2022-12-17T03:36:16.484Z,-13.00
2022-12-17T03:39:01.714Z,-13.20
2022-12-17T03:41:47.943Z,-13.20
2022-12-17T03:44:33.470Z,-13.20
2022-12-17T03:47:19.500Z,-13.20
2022-12-17T03:50:05.102Z,-13.10
2022-12-17T03:52:50.741Z,-13.30
2022-12-17T03:55:36.423Z,-13.30
2022-12-17T03:58:21.863Z,-13.30
2022-12-17T04:01:07.332Z,-13.30
2022-12-17T04:03:52.989Z,-13.30
2022-12-17T04:06:41.746Z,-13.30
2022-12-17T04:09:27.292Z,-13.30
2022-12-17T04:12:12.687Z,-13.30
2022-12-17T04:14:57.887Z,-13.20
2022-12-17T04:17:44.889Z,-13.30
2022-12-17T04:20:30.436Z,-13.30
2022-12-17T04:23:16.041Z,-13.40
2022-12-17T04:26:03.100Z,-13.40
2022-12-17T04:28:48.839Z,-13.40
2022-12-17T04:31:35.068Z,-13.30
2022-12-17T04:34:22.789Z,-13.40
2022-12-17T04:37:08.394Z,-13.40
2022-12-17T04:39:54.245Z,-13.40
2022-12-17T04:42:39.976Z,-13.40
2022-12-17T04:45:26.032Z,-13.40
2022-12-17T04:48:24.179Z,-13.50
2022-12-17T04:51:09.796Z,-13.60
2022-12-17T04:53:55.563Z,-13.70
2022-12-17T04:56:41.640Z,-13.60
2022-12-17T04:59:27.199Z,-13.60
2022-12-17T05:02:12.888Z,-13.60
2022-12-17T05:04:58.319Z,-13.60
2022-12-17T05:07:43.499Z,-13.60
2022-12-17T05:10:29.212Z,-13.70
2022-12-17T05:13:18.017Z,-13.70
2022-12-17T05:16:03.948Z,-13.70
2022-12-17T05:18:50.442Z,-13.70
2022-12-17T05:24:45.329Z,-13.70
2022-12-17T05:27:30.580Z,-13.70
2022-12-17T05:30:15.909Z,-13.70
2022-12-17T05:33:01.379Z,-13.60
2022-12-17T05:35:47.893Z,-13.60
2022-12-17T05:38:33.255Z,-13.60
2022-12-17T05:41:19.680Z,-13.50
2022-12-17T05:44:05.466Z,-13.60
2022-12-17T05:46:50.987Z,-13.70
2022-12-17T05:49:36.920Z,-13.70
2022-12-17T05:52:22.695Z,-13.70
2022-12-17T05:55:07.954Z,-13.70
2022-12-17T05:57:56.569Z,-13.70
2022-12-17T06:00:43.623Z,-13.80
2022-12-17T06:03:29.072Z,-13.60
2022-12-17T06:06:16.241Z,-13.80
2022-12-17T06:09:03.007Z,-13.80
2022-12-17T06:11:48.558Z,-13.80
2022-12-17T06:14:34.246Z,-13.80
2022-12-17T06:17:21.128Z,-13.80
2022-12-17T06:20:09.178Z,-13.80
2022-12-17T06:22:54.825Z,-13.80
2022-12-17T06:25:40.542Z,-13.80
2022-12-17T06:28:30.547Z,-13.80
2022-12-17T06:31:16.156Z,-13.80
2022-12-17T06:34:01.874Z,-13.90
2022-12-17T06:36:47.158Z,-13.90
2022-12-17T06:39:32.810Z,-13.90
2022-12-17T06:42:18.817Z,-13.90
2022-12-17T06:45:07.097Z,-13.90
2022-12-17T06:47:52.783Z,-13.90
2022-12-17T06:50:39.080Z,-13.90
2022-12-17T06:53:26.480Z,-13.90
2022-12-17T06:56:11.989Z,-13.90
2022-12-17T06:58:57.800Z,-13.90
2022-12-17T07:01:43.849Z,-13.80
2022-12-17T07:04:29.810Z,-13.90
2022-12-17T07:07:19.076Z,-13.70
2022-12-17T07:10:07.940Z,-13.80
2022-12-17T07:12:57.706Z,-13.90
2022-12-17T07:15:43.228Z,-13.80
2022-12-17T07:18:28.951Z,-13.80
2022-12-17T07:21:14.368Z,-13.80
2022-12-17T07:24:00.239Z,-13.80
2022-12-17T07:26:46.042Z,-13.80
2022-12-17T07:29:31.739Z,-13.80
2022-12-17T07:32:17.348Z,-13.80
2022-12-17T07:35:02.636Z,-13.80
2022-12-17T07:37:48.033Z,-13.80
2022-12-17T07:40:33.815Z,-13.80
2022-12-17T07:43:19.283Z,-13.90
2022-12-17T07:46:04.881Z,-13.90
2022-12-17T07:48:50.554Z,-13.80
2022-12-17T07:51:35.845Z,-13.70
2022-12-17T07:54:21.342Z,-13.70
2022-12-17T07:57:08.068Z,-13.60
2022-12-17T07:59:53.265Z,-13.50
2022-12-17T08:02:38.878Z,-13.50
2022-12-17T08:05:26.270Z,-13.30
2022-12-17T08:08:11.754Z,-13.40
2022-12-17T08:10:57.332Z,-13.20
2022-12-17T08:13:44.086Z,-13.10
2022-12-17T08:16:29.444Z,-12.90
2022-12-17T08:19:15.554Z,-12.80
2022-12-17T08:22:01.095Z,-12.40
2022-12-17T08:24:46.662Z,-12.40
2022-12-17T08:27:32.115Z,-12.20
2022-12-17T08:30:19.018Z,-12.00
2022-12-17T08:33:04.705Z,-11.80
2022-12-17T08:35:50.378Z,-11.70
2022-12-17T08:38:38.940Z,-11.60
2022-12-17T08:41:24.204Z,-11.40
2022-12-17T08:44:09.862Z,-11.30
2022-12-17T08:46:55.193Z,-11.20
2022-12-17T08:49:40.587Z,-11.10
2022-12-17T08:52:26.431Z,-11.00
2022-12-17T08:55:12.364Z,-10.90
2022-12-17T08:57:57.645Z,-10.80
2022-12-17T09:00:43.921Z,-10.70
2022-12-17T09:03:29.421Z,-10.50
2022-12-17T09:06:14.674Z,-10.40
2022-12-17T09:09:00.079Z,-10.30
2022-12-17T09:11:45.573Z,-10.10
2022-12-17T09:14:31.182Z,-10.10
2022-12-17T09:17:16.843Z,-10.10
2022-12-17T09:23:12.448Z,-10.10
2022-12-17T09:26:17.934Z,-10.10
2022-12-17T09:29:03.405Z,-9.80
2022-12-17T09:31:50.993Z,-9.10
2022-12-17T09:34:37.522Z,-8.10
2022-12-17T09:37:23.500Z,-7.20
2022-12-17T09:40:10.745Z,-6.80
2022-12-17T09:43:20.604Z,-6.90
2022-12-17T09:46:20.821Z,-7.20
2022-12-17T09:49:19.641Z,-7.60
2022-12-17T09:52:05.166Z,-7.90
2022-12-17T09:55:17.214Z,-8.10
2022-12-17T09:58:02.726Z,-8.20
2022-12-17T10:00:48.533Z,-8.40
2022-12-17T10:03:39.353Z,-8.50
2022-12-17T10:06:39.202Z,-8.50
2022-12-17T10:09:37.294Z,-8.50
2022-12-17T10:12:52.671Z,-8.50
2022-12-17T10:15:38.449Z,-8.50
2022-12-17T10:18:33.027Z,-8.50
2022-12-17T10:21:24.737Z,-8.50
2022-12-17T10:24:15.415Z,-8.50
2022-12-17T10:27:10.261Z,-8.40
2022-12-17T10:29:57.754Z,-8.40
2022-12-17T10:32:50.543Z,-8.30
2022-12-17T10:35:54.867Z,-8.20
2022-12-17T10:38:50.082Z,-8.10
2022-12-17T10:41:51.600Z,-7.90
2022-12-17T10:44:54.100Z,-7.80
2022-12-17T10:47:46.479Z,-7.70
2022-12-17T10:50:38.579Z,-7.50
2022-12-17T10:53:40.573Z,-7.40
2022-12-17T10:56:39.885Z,-7.30
2022-12-17T10:59:41.187Z,-7.20
2022-12-17T11:02:41.422Z,-7.20
2022-12-17T11:05:43.811Z,-7.10
2022-12-17T11:08:35.809Z,-7.00
2022-12-17T11:11:30.424Z,-6.90
2022-12-17T11:14:19.634Z,-6.90
2022-12-17T11:17:22.246Z,-6.80
2022-12-17T11:20:39.095Z,-6.70
2022-12-17T11:23:33.144Z,-6.60
2022-12-17T11:26:36.138Z,-6.40
2022-12-17T11:29:25.652Z,-6.30
2022-12-17T11:32:53.784Z,-6.20
2022-12-17T11:36:14.343Z,-6.00
2022-12-17T11:39:32.232Z,-5.80
2022-12-17T11:42:42.079Z,-5.50
2022-12-17T11:45:54.843Z,-5.30
2022-12-17T11:48:55.613Z,-5.10
2022-12-17T11:52:16.323Z,-4.90
2022-12-17T11:55:22.108Z,-4.80
2022-12-17T11:58:28.531Z,-4.60
2022-12-17T12:01:40.911Z,-4.50
2022-12-17T12:05:37.982Z,-4.30
2022-12-17T12:08:54.994Z,-4.20
2022-12-17T12:12:03.314Z,-3.90
2022-12-17T12:15:19.973Z,-3.50
2022-12-17T12:18:29.500Z,-3.20
2022-12-17T12:21:45.322Z,-3.10
2022-12-17T12:25:15.575Z,-3.00
2022-12-17T12:28:45.706Z,-2.80
2022-12-17T12:31:48.401Z,-2.70
2022-12-17T12:34:43.117Z,-2.70
2022-12-17T12:37:34.284Z,-2.60
2022-12-17T12:40:46.620Z,-2.60
2022-12-17T12:43:42.934Z,-2.50
2022-12-17T12:47:06.121Z,-2.40
2022-12-17T12:50:09.579Z,-2.30
2022-12-17T12:52:56.691Z,-2.40
2022-12-17T12:56:02.213Z,-2.40
2022-12-17T12:58:51.689Z,-2.40
2022-12-17T13:01:50.329Z,-2.40
2022-12-17T13:04:57.451Z,-2.40
2022-12-17T13:07:29.938Z,-2.30
2022-12-17T13:10:00.683Z,-2.30
2022-12-17T13:12:46.146Z,-2.20
2022-12-17T13:15:33.401Z,-2.20
2022-12-17T13:18:33.991Z,-2.20
2022-12-17T13:21:29.521Z,-2.20
2022-12-17T13:23:56.416Z,-2.20
2022-12-17T13:26:44.178Z,-2.20
2022-12-17T13:29:38.026Z,-2.30
2022-12-17T13:32:30.954Z,-2.20
2022-12-17T13:35:11.516Z,-2.30
2022-12-17T13:38:09.092Z,-2.30
2022-12-17T13:40:49.632Z,-2.40
2022-12-17T13:43:31.748Z,-2.40
2022-12-17T13:46:02.762Z,-2.40
2022-12-17T13:48:30.434Z,-2.30
2022-12-17T13:51:04.729Z,-2.40
2022-12-17T13:53:36.589Z,-2.40
2022-12-17T13:56:03.739Z,-2.50
2022-12-17T13:58:34.424Z,-2.50
2022-12-17T14:01:17.868Z,-2.50
2022-12-17T14:04:07.391Z,-2.50
2022-12-17T14:06:40.270Z,-2.50
2022-12-17T14:09:14.504Z,-2.50
2022-12-17T14:12:00.410Z,-2.50
2022-12-17T14:14:33.758Z,-2.50
2022-12-17T14:17:01.213Z,-2.60
2022-12-17T14:19:30.263Z,-2.60
2022-12-17T14:21:59.996Z,-2.60
2022-12-17T14:24:29.830Z,-2.60
2022-12-17T14:27:00.798Z,-2.70
2022-12-17T14:29:32.657Z,-2.70
2022-12-17T14:32:36.015Z,-2.70
2022-12-17T14:35:04.167Z,-2.70
2022-12-17T14:37:31.389Z,-2.70
2022-12-17T14:40:05.229Z,-2.70
2022-12-17T14:42:36.543Z,-2.80
2022-12-17T14:45:21.990Z,-2.80
2022-12-17T14:47:59.717Z,-2.90
2022-12-17T14:50:35.516Z,-3.10
2022-12-17T14:53:24.715Z,-3.10
2022-12-17T14:55:57.264Z,-3.20
2022-12-17T14:58:27.038Z,-3.30
2022-12-17T15:01:13.936Z,-3.40
2022-12-17T15:03:46.195Z,-3.40
2022-12-17T15:06:19.751Z,-3.50
2022-12-17T15:08:49.868Z,-3.50
2022-12-17T15:11:20.901Z,-3.60
2022-12-17T15:13:51.534Z,-3.70
2022-12-17T15:16:21.527Z,-3.70
2022-12-17T15:18:48.455Z,-3.90
2022-12-17T15:21:17.352Z,-3.90
2022-12-17T15:23:46.058Z,-4.00
2022-12-17T15:26:15.165Z,-4.20
2022-12-17T15:28:43.574Z,-4.40
2022-12-17T15:31:17.816Z,-4.50
2022-12-17T15:33:47.540Z,-4.70
2022-12-17T15:36:14.775Z,-4.80
2022-12-17T15:38:43.710Z,-4.90
2022-12-17T15:41:43.901Z,-5.00
2022-12-17T15:44:11.173Z,-5.10
2022-12-17T15:46:38.247Z,-5.20
2022-12-17T15:49:05.317Z,-5.30
2022-12-17T15:51:32.253Z,-5.50
2022-12-17T15:53:59.791Z,-5.50
2022-12-17T15:56:28.856Z,-5.60
2022-12-17T15:58:59.343Z,-5.80
2022-12-17T16:01:26.982Z,-5.80
2022-12-17T16:03:54.380Z,-5.80
2022-12-17T16:06:21.523Z,-5.90
2022-12-17T16:08:48.497Z,-6.00
2022-12-17T16:11:16.076Z,-6.10
2022-12-17T16:13:43.536Z,-6.20
2022-12-17T16:16:10.767Z,-6.30
2022-12-17T16:18:38.865Z,-6.30
2022-12-17T16:21:11.590Z,-6.40
2022-12-17T16:23:38.905Z,-6.40
2022-12-17T16:26:09.389Z,-6.40
2022-12-17T16:28:37.383Z,-6.50
2022-12-17T16:31:22.788Z,-6.50
2022-12-17T16:33:50.085Z,-6.70
2022-12-17T16:36:22.235Z,-6.80
2022-12-17T16:38:54.618Z,-6.90
2022-12-17T16:41:22.747Z,-6.90
2022-12-17T16:43:50.356Z,-7.00
2022-12-17T16:46:32.621Z,-7.00
2022-12-17T16:49:19.603Z,-7.00
2022-12-17T16:51:53.213Z,-7.10
2022-12-17T16:54:27.617Z,-7.20
2022-12-17T16:56:55.358Z,-7.30
2022-12-17T16:59:23.692Z,-7.40
2022-12-17T17:01:53.014Z,-7.50
2022-12-17T17:04:24.358Z,-7.50
2022-12-17T17:06:57.418Z,-7.60
2022-12-17T17:09:26.756Z,-7.70
2022-12-17T17:11:58.880Z,-7.70
2022-12-17T17:14:27.030Z,-7.80
2022-12-17T17:16:54.237Z,-7.80
2022-12-17T17:19:22.514Z,-8.00
2022-12-17T17:21:54.494Z,-7.90
2022-12-17T17:24:26.581Z,-8.00
2022-12-17T17:26:55.581Z,-8.10
2022-12-17T17:29:22.842Z,-8.00
2022-12-17T17:34:37.511Z,-8.30
2022-12-17T17:37:04.425Z,-8.20
2022-12-17T17:39:33.207Z,-8.30
2022-12-17T17:42:01.006Z,-8.40
2022-12-17T17:44:27.909Z,-8.40
2022-12-17T17:46:57.831Z,-8.30
2022-12-17T17:49:24.905Z,-8.30
2022-12-17T17:52:08.974Z,-8.30
2022-12-17T17:54:36.277Z,-8.40
2022-12-17T17:57:03.217Z,-8.50
2022-12-17T17:59:33.607Z,-8.50
2022-12-17T18:02:03.409Z,-8.50
2022-12-17T18:04:31.449Z,-8.50
2022-12-17T18:09:45.231Z,-8.50
2022-12-17T18:12:31.004Z,-8.50
2022-12-17T18:15:16.733Z,-8.50
2022-12-17T18:17:49.229Z,-8.60
2022-12-17T18:20:17.171Z,-8.70
2022-12-17T18:22:45.975Z,-8.80
2022-12-17T18:25:13.456Z,-8.80
2022-12-17T18:27:40.871Z,-8.80
2022-12-17T18:30:08.543Z,-8.80
2022-12-17T18:32:35.554Z,-8.80
2022-12-17T18:35:02.596Z,-8.70
2022-12-17T18:37:29.566Z,-8.70
2022-12-17T18:39:56.658Z,-8.70
2022-12-17T18:42:42.099Z,-8.80
2022-12-17T18:45:15.024Z,-8.90
2022-12-17T18:47:42.574Z,-9.00
2022-12-17T18:50:10.823Z,-9.00
2022-12-17T18:52:38.191Z,-9.10
2022-12-17T18:55:06.409Z,-9.20
2022-12-17T18:57:35.938Z,-9.20
2022-12-17T19:00:03.840Z,-9.30
2022-12-17T19:02:30.843Z,-9.30
2022-12-17T19:04:57.728Z,-9.40
2022-12-17T19:07:24.663Z,-9.40
2022-12-17T19:09:53.200Z,-9.40
2022-12-17T19:12:21.381Z,-9.50
2022-12-17T19:14:48.457Z,-9.50
2022-12-17T19:17:15.345Z,-9.50
2022-12-17T19:19:42.299Z,-9.60
2022-12-17T19:22:09.192Z,-9.60
2022-12-17T19:24:39.163Z,-9.70
2022-12-17T19:27:06.019Z,-9.70
2022-12-17T19:29:33.014Z,-9.80
2022-12-17T19:32:00.260Z,-9.80
2022-12-17T19:34:27.221Z,-9.80
2022-12-17T19:36:54.152Z,-9.80
2022-12-17T19:39:21.073Z,-9.80
2022-12-17T19:41:51.019Z,-9.90
2022-12-17T19:44:20.600Z,-10.00
2022-12-17T19:46:48.512Z,-10.00
2022-12-17T19:49:16.666Z,-10.00
2022-12-17T19:51:44.874Z,-10.10
2022-12-17T19:54:14.860Z,-10.10
2022-12-17T19:56:45.797Z,-10.10
2022-12-17T19:59:13.698Z,-10.10
2022-12-17T20:01:46.533Z,-10.10
2022-12-17T20:04:16.223Z,-10.10
2022-12-17T20:06:44.614Z,-10.10
2022-12-17T20:09:12.203Z,-10.10
2022-12-17T20:11:39.595Z,-10.20
2022-12-17T20:14:11.018Z,-10.30
2022-12-17T20:16:45.551Z,-10.20
2022-12-17T20:19:16.602Z,-10.20
2022-12-17T20:21:43.758Z,-10.30
2022-12-17T20:24:12.117Z,-10.30
2022-12-17T20:26:40.819Z,-10.20
2022-12-17T20:29:08.651Z,-10.40
2022-12-17T20:31:36.845Z,-10.40
2022-12-17T20:34:07.752Z,-10.50
2022-12-17T20:36:35.693Z,-10.60
2022-12-17T20:39:02.719Z,-10.60
2022-12-17T20:41:31.901Z,-10.60
2022-12-17T20:44:07.765Z,-10.70
2022-12-17T20:46:36.898Z,-10.70
2022-12-17T20:49:05.853Z,-10.70
2022-12-17T20:51:34.057Z,-10.70
2022-12-17T20:54:03.233Z,-10.70
2022-12-17T20:56:35.127Z,-10.90
2022-12-17T20:59:08.830Z,-10.90
2022-12-17T21:01:37.236Z,-11.00
2022-12-17T21:04:10.133Z,-11.00
2022-12-17T21:06:41.243Z,-11.00
2022-12-17T21:09:08.592Z,-11.00
2022-12-17T21:11:38.068Z,-11.00
2022-12-17T21:14:12.346Z,-11.10
2022-12-17T21:16:40.305Z,-11.10
2022-12-17T21:19:09.563Z,-11.20
2022-12-17T21:21:38.316Z,-11.20
2022-12-17T21:24:06.875Z,-11.20
2022-12-17T21:26:42.943Z,-11.30
2022-12-17T21:29:11.085Z,-11.30
2022-12-17T21:31:45.430Z,-11.30
2022-12-17T21:34:17.633Z,-11.30
2022-12-17T21:36:44.647Z,-11.40
2022-12-17T21:39:15.301Z,-11.30
2022-12-17T21:42:04.903Z,-11.30
2022-12-17T21:44:32.655Z,-11.30
2022-12-17T21:47:00.035Z,-11.20
2022-12-17T21:49:26.974Z,-11.20
2022-12-17T21:51:55.092Z,-11.20
2022-12-17T21:54:21.996Z,-11.30
2022-12-17T21:56:49.015Z,-11.30
2022-12-17T21:59:16.344Z,-11.30
2022-12-17T22:01:43.421Z,-11.30
2022-12-17T22:04:10.339Z,-11.40
2022-12-17T22:06:40.715Z,-11.50
2022-12-17T22:09:28.531Z,-11.50
2022-12-17T22:12:22.546Z,-11.50
2022-12-17T22:14:49.501Z,-11.50
2022-12-17T22:17:16.368Z,-11.50
2022-12-17T22:19:43.325Z,-11.50
2022-12-17T22:22:10.217Z,-11.60
2022-12-17T22:24:37.119Z,-11.40
2022-12-17T22:27:05.783Z,-11.60
2022-12-17T22:29:55.087Z,-11.60
2022-12-17T22:32:42.353Z,-11.60
2022-12-17T22:35:54.123Z,-11.60
2022-12-17T22:41:23.236Z,-11.60
2022-12-17T22:44:30.557Z,-11.60
2022-12-17T22:44:40.582Z,-11.60
2022-12-17T22:46:18.981Z,-11.50
2022-12-17T22:48:46.206Z,-11.60
2022-12-17T22:51:16.678Z,-11.60
2022-12-17T22:53:48.446Z,-11.60
2022-12-17T22:56:27.422Z,-11.50
2022-12-17T22:59:04.290Z,-11.40
2022-12-17T23:01:33.311Z,-11.50
2022-12-17T23:04:03.652Z,-11.50
2022-12-17T23:06:30.758Z,-11.50
2022-12-17T23:08:59.000Z,-11.60
2022-12-17T23:11:29.097Z,-11.60
2022-12-17T23:13:56.077Z,-11.60
2022-12-17T23:16:23.556Z,-11.70
2022-12-17T23:18:52.084Z,-11.70
2022-12-17T23:21:25.882Z,-11.70
2022-12-17T23:23:55.946Z,-11.70
2022-12-17T23:26:27.062Z,-11.70
2022-12-17T23:29:05.294Z,-11.80
2022-12-17T23:31:37.445Z,-11.80
2022-12-17T23:34:05.101Z,-11.80
2022-12-17T23:36:32.411Z,-11.90
2022-12-17T23:38:59.814Z,-11.90
2022-12-17T23:41:30.365Z,-11.70
2022-12-17T23:43:58.511Z,-11.70
2022-12-17T23:46:28.710Z,-11.90
2022-12-17T23:48:55.882Z,-11.90
2022-12-17T23:51:24.409Z,-11.80
2022-12-17T23:53:51.658Z,-11.90
2022-12-17T23:56:22.818Z,-11.90
2022-12-17T23:58:57.518Z,-11.90
